createdAt,value
2019-05-19T00:00:09.266Z,99309.55
2019-05-19T00:05:13.109Z,99309.55
2019-05-19T00:10:16.895Z,99302.98
2019-05-19T00:15:20.763Z,99296.26
2019-05-19T00:20:24.533Z,99287.00
2019-05-19T00:25:28.335Z,99290.54
2019-05-19T00:30:32.177Z,99293.06
2019-05-19T00:35:35.994Z,99296.77
2019-05-19T00:40:39.792Z,99289.03
2019-05-19T00:45:43.575Z,99289.70
2019-05-19T00:50:47.439Z,99278.56
2019-05-19T00:55:51.743Z,99279.78
2019-05-19T01:00:55.688Z,99281.62
2019-05-19T01:05:59.487Z,99282.97
2019-05-19T01:11:03.277Z,99276.25
2019-05-19T01:16:07.106Z,99277.72
2019-05-19T01:21:11.078Z,99265.97
2019-05-19T01:26:14.851Z,99265.97
2019-05-19T01:31:18.728Z,99249.41
2019-05-19T01:36:22.586Z,99262.81
2019-05-19T01:41:26.416Z,99260.24
2019-05-19T01:46:30.353Z,99254.74
2019-05-19T01:51:34.355Z,99255.38
2019-05-19T01:56:38.183Z,99258.06
2019-05-19T02:01:41.960Z,99253.52
2019-05-19T02:06:45.748Z,99255.58
2019-05-19T02:11:49.511Z,99257.05
2019-05-19T02:16:53.294Z,99257.05
2019-05-19T02:21:57.158Z,99255.58
2019-05-19T02:27:00.954Z,99253.18
2019-05-19T02:32:04.813Z,99253.18
2019-05-19T02:37:08.669Z,99258.88
2019-05-19T02:42:12.812Z,99252.31
2019-05-19T02:47:16.583Z,99252.31
2019-05-19T02:52:20.818Z,99251.81
2019-05-19T02:57:24.753Z,99258.19
2019-05-19T03:02:28.554Z,99257.69
2019-05-19T03:07:32.392Z,99258.60
2019-05-19T03:12:36.214Z,99259.42
2019-05-19T03:17:40.151Z,99267.80
2019-05-19T03:22:43.949Z,99266.39
2019-05-19T03:27:47.791Z,99266.39
2019-05-19T03:32:58.693Z,99265.02
2019-05-19T03:38:02.524Z,99271.40
2019-05-19T03:43:06.338Z,99270.68
2019-05-19T03:48:10.226Z,99269.50
2019-05-19T03:53:14.085Z,99269.50
2019-05-19T03:58:17.881Z,99262.59
2019-05-19T04:03:21.708Z,99258.41
2019-05-19T04:08:25.493Z,99254.03
2019-05-19T04:13:29.288Z,99259.43
2019-05-19T04:18:33.097Z,99259.43
2019-05-19T04:23:36.988Z,99268.27
2019-05-19T04:28:40.806Z,99266.89
2019-05-19T04:33:44.612Z,99267.73
2019-05-19T04:38:48.473Z,99267.73
2019-05-19T04:43:52.352Z,99263.36
2019-05-19T04:48:56.137Z,99266.39
2019-05-19T04:53:59.953Z,99261.18
2019-05-19T04:59:03.748Z,99261.18
2019-05-19T05:04:07.556Z,99268.24
2019-05-19T05:09:11.330Z,99270.24
2019-05-19T05:14:15.108Z,99270.24
2019-05-19T05:19:18.878Z,99279.15
2019-05-19T05:24:22.679Z,99276.63
2019-05-19T05:29:26.520Z,99276.63
2019-05-19T05:34:30.284Z,99280.99
2019-05-19T05:39:34.165Z,99274.09
2019-05-19T05:44:37.966Z,99281.31
2019-05-19T05:49:41.785Z,99281.78
2019-05-19T05:54:45.676Z,99281.78
2019-05-19T05:59:49.768Z,99272.88
2019-05-19T06:04:53.631Z,99280.94
2019-05-19T06:09:57.500Z,99280.94
2019-05-19T06:15:01.383Z,99274.38
2019-05-19T06:20:05.449Z,99276.05
2019-05-19T06:25:09.575Z,99272.37
2019-05-19T06:30:13.360Z,99272.37
2019-05-19T06:35:17.540Z,99273.53
2019-05-19T06:40:21.329Z,99273.53
2019-05-19T06:45:25.203Z,99275.93
2019-05-19T06:50:29.038Z,99275.93
2019-05-19T06:55:32.866Z,99270.34
2019-05-19T07:00:36.655Z,99261.44
2019-05-19T07:05:40.451Z,99256.74
2019-05-19T07:10:44.304Z,99251.47
2019-05-19T07:15:48.110Z,99252.66
2019-05-19T07:20:51.957Z,99252.66
2019-05-19T07:25:55.762Z,99250.82
2019-05-19T07:30:59.574Z,99248.53
2019-05-19T07:36:03.439Z,99248.38
2019-05-19T07:41:07.302Z,99243.91
2019-05-19T07:46:11.176Z,99243.91
2019-05-19T07:51:15.002Z,99244.31
2019-05-19T07:56:18.807Z,99245.23
2019-05-19T08:01:22.657Z,99224.58
2019-05-19T08:06:26.482Z,99224.58
2019-05-19T08:11:30.420Z,99236.50
2019-05-19T08:16:34.708Z,99236.50
2019-05-19T08:21:38.520Z,99233.43
2019-05-19T08:26:42.324Z,99233.43
2019-05-19T08:31:46.154Z,99209.55
2019-05-19T08:36:49.976Z,99209.55
2019-05-19T08:41:53.973Z,99224.53
2019-05-19T08:46:57.901Z,99223.11
2019-05-19T08:52:01.790Z,99217.41
2019-05-19T08:57:05.623Z,99218.06
2019-05-19T09:02:09.437Z,99218.06
2019-05-19T09:07:13.238Z,99215.58
2019-05-19T09:12:17.038Z,99215.58
2019-05-19T09:17:21.645Z,99212.60
2019-05-19T09:22:25.463Z,99194.93
2019-05-19T09:27:29.367Z,99203.42
2019-05-19T09:32:33.169Z,99200.08
2019-05-19T09:37:37.029Z,99204.30
2019-05-19T09:42:40.843Z,99205.04
2019-05-19T09:47:44.649Z,99204.28
2019-05-19T09:52:48.442Z,99205.34
2019-05-19T09:57:52.264Z,99205.34
2019-05-19T10:02:56.069Z,99195.65
2019-05-19T10:07:59.908Z,99193.48
2019-05-19T10:13:03.847Z,99193.48
2019-05-19T10:18:07.641Z,99194.14
2019-05-19T10:23:11.445Z,99194.14
2019-05-19T10:28:15.421Z,99178.09
2019-05-19T10:33:19.297Z,99178.09
2019-05-19T10:38:23.101Z,99179.12
2019-05-19T10:43:26.942Z,99185.02
2019-05-19T10:48:30.777Z,99176.53
2019-05-19T10:53:34.624Z,99178.97
2019-05-19T10:58:38.439Z,99168.12
2019-05-19T11:03:42.246Z,99165.91
2019-05-19T11:08:46.232Z,99160.75
2019-05-19T11:13:50.037Z,99160.75
2019-05-19T11:18:53.873Z,99159.90
2019-05-19T11:23:57.696Z,99157.95
2019-05-19T11:29:01.513Z,99155.59
2019-05-19T11:34:05.332Z,99155.59
2019-05-19T11:39:09.660Z,99152.77
2019-05-19T11:44:13.477Z,99160.15
2019-05-19T11:49:17.289Z,99159.47
2019-05-19T11:54:21.087Z,99145.70
2019-05-19T11:59:24.889Z,99134.70
2019-05-19T12:04:28.769Z,99146.38
2019-05-19T12:09:32.594Z,99137.52
2019-05-19T12:14:36.419Z,99143.73
2019-05-19T12:19:40.319Z,99147.43
2019-05-19T12:24:44.157Z,99147.43
2019-05-19T12:29:50.456Z,99147.43
2019-05-19T12:34:54.265Z,99141.89
2019-05-19T12:39:58.075Z,99137.20
2019-05-19T12:45:02.017Z,99129.34
2019-05-19T12:50:06.610Z,99129.34
2019-05-19T12:55:10.842Z,99128.69
2019-05-19T13:00:14.700Z,99121.33
2019-05-19T13:05:18.495Z,99113.44
2019-05-19T13:10:22.313Z,99112.94
2019-05-19T13:15:26.114Z,99112.94
2019-05-19T13:20:29.935Z,99107.09
2019-05-19T13:25:33.740Z,99110.97
2019-05-19T13:30:37.549Z,99097.39
2019-05-19T13:35:41.433Z,99098.88
2019-05-19T13:40:45.243Z,99093.97
2019-05-19T13:45:49.085Z,99079.90
2019-05-19T13:50:52.928Z,99079.90
2019-05-19T13:55:56.836Z,99089.82
2019-05-19T14:01:00.755Z,99090.33
2019-05-19T14:06:04.616Z,99085.28
2019-05-19T14:11:08.496Z,99085.28
2019-05-19T14:16:12.298Z,99073.00
2019-05-19T14:21:16.085Z,99073.00
2019-05-19T14:26:19.981Z,99068.12
2019-05-19T14:31:23.861Z,99068.12
2019-05-19T14:36:27.676Z,99065.27
2019-05-19T14:41:34.821Z,99065.27
2019-05-19T14:46:38.714Z,99062.28
2019-05-19T14:51:42.546Z,99062.45
2019-05-19T14:56:46.335Z,99062.45
2019-05-19T15:01:50.214Z,99054.38
2019-05-19T15:06:54.038Z,99050.34
2019-05-19T15:11:57.875Z,99046.30
2019-05-19T15:17:01.689Z,99046.30
2019-05-19T15:22:05.616Z,99050.00
2019-05-19T15:27:09.511Z,99051.69
2019-05-19T15:32:13.344Z,99034.02
2019-05-19T15:37:17.235Z,99029.51
2019-05-19T15:42:21.041Z,99029.51
2019-05-19T15:47:24.870Z,99027.19
2019-05-19T15:52:28.670Z,99010.89
2019-05-19T15:57:32.591Z,99009.52
2019-05-19T16:02:36.407Z,99009.52
2019-05-19T16:07:40.519Z,99006.83
2019-05-19T16:12:44.340Z,99001.27
2019-05-19T16:17:48.141Z,99003.46
2019-05-19T16:22:52.041Z,99003.46
2019-05-19T16:27:55.858Z,98995.55
2019-05-19T16:32:59.712Z,99002.81
2019-05-19T16:38:03.639Z,99002.48
2019-05-19T16:43:07.863Z,98988.84
2019-05-19T16:48:11.657Z,98988.84
2019-05-19T16:53:15.423Z,98989.71
2019-05-19T16:58:21.425Z,98994.73
2019-05-19T17:03:24.734Z,98986.34
2019-05-19T17:08:28.557Z,98983.31
2019-05-19T17:13:32.329Z,98984.16
2019-05-19T17:18:36.134Z,98984.16
2019-05-19T17:23:39.915Z,98980.64
2019-05-19T17:28:43.680Z,98980.64
2019-05-19T17:33:47.589Z,98994.94
2019-05-19T17:38:51.435Z,98994.94
2019-05-19T17:43:55.408Z,98987.53
2019-05-19T17:48:59.197Z,98994.92
2019-05-19T17:54:02.992Z,98985.17
2019-05-19T17:59:16.143Z,98993.42
2019-05-19T18:04:12.285Z,98993.42
2019-05-19T18:09:16.073Z,98995.13
2019-05-19T18:14:19.842Z,98993.41
2019-05-19T18:19:23.666Z,98993.41
2019-05-19T18:24:27.436Z,98989.38
2019-05-19T18:29:31.830Z,98989.38
2019-05-19T18:34:35.721Z,98999.12
2019-05-19T18:39:39.516Z,98995.95
2019-05-19T18:44:43.291Z,98992.91
2019-05-19T18:49:47.081Z,99001.34
2019-05-19T18:54:50.993Z,99007.38
2019-05-19T18:59:54.982Z,99007.57
2019-05-19T19:04:58.762Z,99007.57
2019-05-19T19:10:02.558Z,99006.53
2019-05-19T19:15:06.576Z,99006.53
2019-05-19T19:20:10.351Z,99019.69
2019-05-19T19:25:14.175Z,99030.63
2019-05-19T19:30:17.993Z,99031.08
2019-05-19T19:35:21.837Z,99030.21
2019-05-19T19:40:29.458Z,99034.59
2019-05-19T19:45:33.327Z,99032.77
2019-05-19T19:50:37.176Z,99035.79
2019-05-19T19:55:40.949Z,99034.92
2019-05-19T20:00:45.302Z,99031.22
2019-05-19T20:05:49.184Z,99034.42
2019-05-19T20:10:52.965Z,99034.42
2019-05-19T20:15:56.820Z,99022.16
2019-05-19T20:21:00.704Z,99029.88
2019-05-19T20:26:04.542Z,99030.38
2019-05-19T20:31:08.378Z,99030.38
2019-05-19T20:36:12.167Z,99031.22
2019-05-19T20:41:16.053Z,99031.73
2019-05-19T20:46:20.028Z,99031.73
2019-05-19T20:51:23.880Z,99021.20
2019-05-19T20:56:27.706Z,99014.65
2019-05-19T21:01:31.507Z,99018.52
2019-05-19T21:06:35.322Z,99012.27
2019-05-19T21:11:39.101Z,99010.78
2019-05-19T21:16:42.898Z,99024.53
2019-05-19T21:21:46.734Z,99014.95
2019-05-19T21:26:50.551Z,99024.53
2019-05-19T21:31:54.433Z,99024.53
2019-05-19T21:36:58.486Z,99016.43
2019-05-19T21:42:02.299Z,99017.64
2019-05-19T21:47:06.101Z,99017.64
2019-05-19T21:52:09.941Z,99016.59
2019-05-19T21:57:13.772Z,99013.91
2019-05-19T22:02:17.833Z,99013.73
2019-05-19T22:07:32.206Z,99013.73
2019-05-19T22:12:36.001Z,99016.59
2019-05-19T22:17:40.064Z,99016.59
2019-05-19T22:22:43.893Z,99017.27
2019-05-19T22:27:47.762Z,99026.34
2019-05-19T22:32:51.556Z,99024.33
2019-05-19T22:37:56.576Z,99024.33
2019-05-19T22:43:00.388Z,99020.59
2019-05-19T22:48:04.207Z,99006.50
2019-05-19T22:53:08.000Z,99008.02
2019-05-19T22:58:11.818Z,99007.22
2019-05-19T23:03:15.619Z,99007.89
2019-05-19T23:08:19.421Z,98999.31
2019-05-19T23:13:23.244Z,98999.31
2019-05-19T23:18:27.110Z,98996.63
2019-05-19T23:23:30.931Z,99003.34
2019-05-19T23:28:34.833Z,99008.93
2019-05-19T23:33:38.701Z,99008.93
2019-05-19T23:38:42.505Z,99008.73
2019-05-19T23:43:47.656Z,99002.67
2019-05-19T23:48:52.656Z,99009.57
2019-05-19T23:53:56.495Z,99007.38
2019-05-19T23:59:00.316Z,99007.38
